createdAt,value
2022-11-23T00:01:22.653Z,5.56
2022-11-23T00:03:58.370Z,5.56
2022-11-23T00:06:30.502Z,5.53
2022-11-23T00:09:02.451Z,5.55
2022-11-23T00:11:37.465Z,5.57
2022-11-23T00:14:09.655Z,5.57
2022-11-23T00:16:43.405Z,5.57
2022-11-23T00:19:15.163Z,5.53
2022-11-23T00:21:46.969Z,5.56
2022-11-23T00:24:19.978Z,5.55
2022-11-23T00:26:51.935Z,5.54
2022-11-23T00:29:24.670Z,5.49
2022-11-23T00:31:56.540Z,5.50
2022-11-23T00:34:28.549Z,5.46
2022-11-23T00:37:00.918Z,5.39
2022-11-23T00:39:34.315Z,5.45
2022-11-23T00:42:07.598Z,5.48
2022-11-23T00:44:40.673Z,5.48
2022-11-23T00:47:14.174Z,5.45
2022-11-23T00:49:46.854Z,5.51
2022-11-23T00:52:18.773Z,5.53
2022-11-23T00:54:51.417Z,5.51
2022-11-23T00:57:23.563Z,5.48
2022-11-23T00:59:55.425Z,5.49
2022-11-23T01:02:32.078Z,5.49
2022-11-23T01:05:04.220Z,5.49
2022-11-23T01:07:36.309Z,5.47
2022-11-23T01:10:14.278Z,5.47
2022-11-23T01:12:46.414Z,5.48
2022-11-23T01:15:19.722Z,5.47
2022-11-23T01:17:52.289Z,5.47
2022-11-23T01:20:23.994Z,5.46
2022-11-23T01:22:56.677Z,5.45
2022-11-23T01:25:28.550Z,5.46
2022-11-23T01:28:06.667Z,5.46
2022-11-23T01:30:38.813Z,5.47
2022-11-23T01:33:10.609Z,5.48
2022-11-23T01:35:42.410Z,5.46
2022-11-23T01:38:18.329Z,5.48
2022-11-23T01:40:51.992Z,5.47
2022-11-23T01:43:24.813Z,5.43
2022-11-23T01:46:03.025Z,5.44
2022-11-23T01:48:39.334Z,5.43
2022-11-23T01:51:16.285Z,5.34
2022-11-23T01:53:53.061Z,5.32
2022-11-23T01:56:30.441Z,5.28
2022-11-23T01:59:07.460Z,5.30
2022-11-23T02:01:40.637Z,5.26
2022-11-23T02:04:17.802Z,5.24
2022-11-23T02:06:52.540Z,5.22
2022-11-23T02:09:24.652Z,5.11
2022-11-23T02:11:57.220Z,5.21
2022-11-23T02:14:30.697Z,5.17
2022-11-23T02:17:08.008Z,5.11
2022-11-23T02:19:49.253Z,5.16
2022-11-23T02:22:31.383Z,5.12
2022-11-23T02:25:08.821Z,5.13
2022-11-23T02:27:46.748Z,5.14
2022-11-23T02:30:21.330Z,5.14
2022-11-23T02:32:53.404Z,5.10
2022-11-23T02:35:25.982Z,5.09
2022-11-23T02:37:57.789Z,5.06
2022-11-23T02:40:33.504Z,5.07
2022-11-23T02:46:04.244Z,5.06
2022-11-23T02:48:36.563Z,5.04
2022-11-23T02:51:10.059Z,5.02
2022-11-23T02:53:44.147Z,5.02
2022-11-23T02:56:16.123Z,5.01
2022-11-23T02:58:47.814Z,5.03
2022-11-23T03:01:20.030Z,5.08
2022-11-23T03:03:52.515Z,5.05
2022-11-23T03:06:24.383Z,5.05
2022-11-23T03:08:56.818Z,5.05
2022-11-23T03:11:29.961Z,5.04
2022-11-23T03:14:02.047Z,4.96
2022-11-23T03:16:38.388Z,4.96
2022-11-23T03:19:11.548Z,4.95
2022-11-23T03:21:44.369Z,4.93
2022-11-23T03:24:17.394Z,4.92
2022-11-23T03:26:51.166Z,4.92
2022-11-23T03:29:30.830Z,4.92
2022-11-23T03:32:07.985Z,4.91
2022-11-23T03:34:40.985Z,4.91
2022-11-23T03:37:13.701Z,4.91
2022-11-23T03:39:47.579Z,4.89
2022-11-23T03:42:30.177Z,4.88
2022-11-23T03:45:02.721Z,4.89
2022-11-23T03:47:35.411Z,4.85
2022-11-23T03:50:14.345Z,4.86
2022-11-23T03:52:46.391Z,4.85
2022-11-23T03:55:22.100Z,4.87
2022-11-23T03:58:00.376Z,4.86
2022-11-23T04:00:34.375Z,4.87
2022-11-23T04:03:07.614Z,4.85
2022-11-23T04:06:09.074Z,4.85
2022-11-23T04:09:02.283Z,4.78
2022-11-23T04:11:55.802Z,4.88
2022-11-23T04:14:27.870Z,4.87
2022-11-23T04:17:01.168Z,4.83
2022-11-23T04:19:33.485Z,4.85
2022-11-23T04:22:05.912Z,4.83
2022-11-23T04:24:43.079Z,4.79
2022-11-23T04:27:14.970Z,4.81
2022-11-23T04:29:47.720Z,4.85
2022-11-23T04:32:22.156Z,4.85
2022-11-23T04:34:54.523Z,4.85
2022-11-23T04:37:26.760Z,4.81
2022-11-23T04:39:58.647Z,4.83
2022-11-23T04:42:42.629Z,4.85
2022-11-23T04:45:14.990Z,4.87
2022-11-23T04:47:49.956Z,4.86
2022-11-23T04:50:22.435Z,4.88
2022-11-23T04:52:57.884Z,4.89
2022-11-23T04:55:36.684Z,4.88
2022-11-23T04:58:09.264Z,4.84
2022-11-23T05:00:42.604Z,4.84
2022-11-23T05:03:16.435Z,4.85
2022-11-23T05:05:50.709Z,4.85
2022-11-23T05:08:25.795Z,4.88
2022-11-23T05:11:13.431Z,4.88
2022-11-23T05:13:46.310Z,4.88
2022-11-23T05:16:19.392Z,4.90
2022-11-23T05:18:52.631Z,4.92
2022-11-23T05:21:27.644Z,4.93
2022-11-23T05:24:00.091Z,4.97
2022-11-23T05:26:33.586Z,4.96
2022-11-23T05:29:05.648Z,4.91
2022-11-23T05:31:37.619Z,4.89
2022-11-23T05:34:10.438Z,4.88
2022-11-23T05:36:49.192Z,4.91
2022-11-23T05:39:25.528Z,4.94
2022-11-23T05:41:59.089Z,4.91
2022-11-23T05:44:44.291Z,4.92
2022-11-23T05:47:26.485Z,4.94
2022-11-23T05:49:59.724Z,4.96
2022-11-23T05:52:32.628Z,4.94
2022-11-23T05:55:08.303Z,4.97
2022-11-23T05:57:40.562Z,4.92
2022-11-23T06:00:13.845Z,5.07
2022-11-23T06:02:50.838Z,5.08
2022-11-23T06:05:26.968Z,5.11
2022-11-23T06:07:59.439Z,5.14
2022-11-23T06:10:32.765Z,5.18
2022-11-23T06:13:09.454Z,5.21
2022-11-23T06:15:41.487Z,5.25
2022-11-23T06:18:15.641Z,5.30
2022-11-23T06:20:55.311Z,5.33
2022-11-23T06:23:28.186Z,5.34
2022-11-23T06:26:11.977Z,5.36
2022-11-23T06:28:45.949Z,5.32
2022-11-23T06:31:19.602Z,5.38
2022-11-23T06:33:54.042Z,5.32
2022-11-23T06:36:27.439Z,5.36
2022-11-23T06:39:00.378Z,5.34
2022-11-23T06:41:33.116Z,5.31
2022-11-23T06:44:06.743Z,5.38
2022-11-23T06:46:47.396Z,5.36
2022-11-23T06:49:24.191Z,5.37
2022-11-23T06:52:13.928Z,5.39
2022-11-23T06:54:47.121Z,5.38
2022-11-23T06:57:20.405Z,5.44
2022-11-23T07:00:02.445Z,5.46
2022-11-23T07:02:39.161Z,5.50
2022-11-23T07:05:12.143Z,5.49
2022-11-23T07:07:43.891Z,5.49
2022-11-23T07:10:21.557Z,5.42
2022-11-23T07:13:03.745Z,5.53
2022-11-23T07:15:36.205Z,5.42
2022-11-23T07:18:08.957Z,5.50
2022-11-23T07:20:41.040Z,5.49
2022-11-23T07:23:14.142Z,5.49
2022-11-23T07:25:46.490Z,5.55
2022-11-23T07:28:21.544Z,5.49
2022-11-23T07:30:53.745Z,5.51
2022-11-23T07:33:26.110Z,5.54
2022-11-23T07:35:58.004Z,5.55
2022-11-23T07:38:29.749Z,5.54
2022-11-23T07:41:03.825Z,5.57
2022-11-23T07:43:54.654Z,5.59
2022-11-23T07:46:26.807Z,5.56
2022-11-23T07:49:01.708Z,5.57
2022-11-23T07:51:34.030Z,5.63
2022-11-23T07:54:06.416Z,5.66
2022-11-23T07:56:38.384Z,5.63
2022-11-23T07:59:10.533Z,5.64
2022-11-23T08:01:42.886Z,5.68
2022-11-23T08:04:14.630Z,5.70
2022-11-23T08:06:46.413Z,5.72
2022-11-23T08:09:19.216Z,5.75
2022-11-23T08:11:51.305Z,5.80
2022-11-23T08:14:23.816Z,5.86
2022-11-23T08:16:55.657Z,5.77
2022-11-23T08:19:27.377Z,5.79
2022-11-23T08:21:59.190Z,5.80
2022-11-23T08:24:31.270Z,5.86
2022-11-23T08:27:03.432Z,5.86
2022-11-23T08:29:35.559Z,5.85
2022-11-23T08:32:07.930Z,5.89
2022-11-23T08:34:39.800Z,5.87
2022-11-23T08:37:11.758Z,5.88
2022-11-23T08:39:43.650Z,5.91
2022-11-23T08:42:15.504Z,5.96
2022-11-23T08:44:47.388Z,6.01
2022-11-23T08:47:19.799Z,6.02
2022-11-23T08:49:51.645Z,6.01
2022-11-23T08:52:23.400Z,6.02
2022-11-23T08:54:55.569Z,6.09
2022-11-23T08:57:29.663Z,6.08
2022-11-23T09:00:01.993Z,6.08
2022-11-23T09:02:34.255Z,6.11
2022-11-23T09:05:07.724Z,6.07
2022-11-23T09:07:40.033Z,6.09
2022-11-23T09:10:18.028Z,6.13
2022-11-23T09:12:51.207Z,6.12
2022-11-23T09:15:23.398Z,6.16
2022-11-23T09:17:55.171Z,6.19
2022-11-23T09:20:27.286Z,6.25
2022-11-23T09:22:59.140Z,6.21
2022-11-23T09:25:31.263Z,6.28
2022-11-23T09:28:04.484Z,6.26
2022-11-23T09:30:36.468Z,6.31
2022-11-23T09:33:08.430Z,6.32
2022-11-23T09:35:43.820Z,6.29
2022-11-23T09:38:17.031Z,6.32
2022-11-23T09:40:57.537Z,6.31
2022-11-23T09:43:42.212Z,6.35
2022-11-23T09:46:23.155Z,6.37
2022-11-23T09:49:11.735Z,6.43
2022-11-23T09:51:45.375Z,6.46
2022-11-23T09:54:30.530Z,6.42
2022-11-23T09:57:04.627Z,6.43
2022-11-23T09:59:44.886Z,6.43
2022-11-23T10:02:23.159Z,6.43
2022-11-23T10:04:57.043Z,6.47
2022-11-23T10:07:40.954Z,6.50
2022-11-23T10:10:26.712Z,6.54
2022-11-23T10:13:16.909Z,6.50
2022-11-23T10:16:03.061Z,6.48
2022-11-23T10:18:45.268Z,6.45
2022-11-23T10:21:30.049Z,6.50
2022-11-23T10:24:14.563Z,6.54
2022-11-23T10:26:48.254Z,6.53
2022-11-23T10:29:28.651Z,6.51
2022-11-23T10:32:02.196Z,6.52
2022-11-23T10:34:47.175Z,6.54
2022-11-23T10:37:20.729Z,6.56
2022-11-23T10:39:52.652Z,6.53
2022-11-23T10:42:30.364Z,6.55
2022-11-23T10:45:02.781Z,6.48
2022-11-23T10:47:41.329Z,6.48
2022-11-23T10:50:30.373Z,6.50
2022-11-23T10:53:20.192Z,6.44
2022-11-23T10:55:55.050Z,6.39
2022-11-23T10:58:31.389Z,6.49
2022-11-23T11:01:06.120Z,6.53
2022-11-23T11:03:36.730Z,6.55
2022-11-23T11:06:10.524Z,6.54
2022-11-23T11:08:53.564Z,6.54
2022-11-23T11:11:28.846Z,6.55
2022-11-23T11:14:18.594Z,6.56
2022-11-23T11:16:52.261Z,6.51
2022-11-23T11:19:31.131Z,6.52
2022-11-23T11:22:05.891Z,6.46
2022-11-23T11:24:38.539Z,6.42
2022-11-23T11:27:17.159Z,6.45
2022-11-23T11:29:52.305Z,6.48
2022-11-23T11:32:31.111Z,6.49
2022-11-23T11:35:12.831Z,6.54
2022-11-23T11:37:48.251Z,6.60
2022-11-23T11:40:25.289Z,6.53
2022-11-23T11:43:03.828Z,6.53
2022-11-23T11:45:46.366Z,6.53
2022-11-23T11:48:31.116Z,6.56
2022-11-23T11:51:07.964Z,6.57
2022-11-23T11:53:50.446Z,6.61
2022-11-23T11:56:26.964Z,6.61
2022-11-23T11:59:07.620Z,6.59
2022-11-23T12:01:45.898Z,6.59
2022-11-23T12:04:24.675Z,6.60
2022-11-23T12:07:04.218Z,6.59
2022-11-23T12:09:41.736Z,6.42
2022-11-23T12:12:17.697Z,6.58
2022-11-23T12:14:49.505Z,6.58
2022-11-23T12:17:53.405Z,6.55
2022-11-23T12:20:30.207Z,6.56
2022-11-23T12:23:18.981Z,6.56
2022-11-23T12:26:03.706Z,6.60
2022-11-23T12:28:51.322Z,6.59
2022-11-23T12:31:31.397Z,6.55
2022-11-23T12:34:18.899Z,6.61
2022-11-23T12:37:12.944Z,6.55
2022-11-23T12:40:05.021Z,6.57
2022-11-23T12:42:43.612Z,6.57
2022-11-23T12:45:28.064Z,6.55
2022-11-23T12:48:15.483Z,6.54
2022-11-23T12:50:54.637Z,6.56
2022-11-23T12:53:39.023Z,6.55
2022-11-23T12:56:20.969Z,6.49
2022-11-23T12:58:54.960Z,6.52
2022-11-23T13:01:32.252Z,6.44
2022-11-23T13:04:48.556Z,6.55
2022-11-23T13:07:48.860Z,6.48
2022-11-23T13:10:49.231Z,6.58
2022-11-23T13:13:49.168Z,6.60
2022-11-23T13:16:55.675Z,6.61
2022-11-23T13:19:42.748Z,6.63
2022-11-23T13:22:20.416Z,6.65
2022-11-23T13:25:16.384Z,6.65
2022-11-23T13:28:02.322Z,6.64
2022-11-23T13:31:07.351Z,6.62
2022-11-23T13:33:38.196Z,6.64
2022-11-23T13:36:19.578Z,6.63
2022-11-23T13:38:52.510Z,6.65
2022-11-23T13:41:55.495Z,6.65
2022-11-23T13:44:32.184Z,6.66
2022-11-23T13:47:07.820Z,6.66
2022-11-23T13:49:44.931Z,6.65
2022-11-23T13:52:32.494Z,6.68
2022-11-23T13:55:10.078Z,6.66
2022-11-23T13:57:44.040Z,6.68
2022-11-23T14:00:50.061Z,6.71
2022-11-23T14:03:53.071Z,6.72
2022-11-23T14:06:29.801Z,6.73
2022-11-23T14:09:07.810Z,6.68
2022-11-23T14:11:51.910Z,6.70
2022-11-23T14:14:28.975Z,6.67
2022-11-23T14:17:20.827Z,6.72
2022-11-23T14:20:11.004Z,6.74
2022-11-23T14:22:56.516Z,6.75
2022-11-23T14:25:46.363Z,6.62
2022-11-23T14:28:33.846Z,6.72
2022-11-23T14:31:22.896Z,6.75
2022-11-23T14:34:02.192Z,6.70
2022-11-23T14:36:42.615Z,6.68
2022-11-23T14:39:49.580Z,6.71
2022-11-23T14:42:24.433Z,6.70
2022-11-23T14:44:55.440Z,6.66
2022-11-23T14:47:31.816Z,6.66
2022-11-23T14:50:03.667Z,6.67
2022-11-23T14:52:38.204Z,6.67
2022-11-23T14:55:17.666Z,6.68
2022-11-23T14:57:52.578Z,6.63
2022-11-23T15:00:28.395Z,6.67
2022-11-23T15:03:27.153Z,6.66
2022-11-23T15:06:04.816Z,6.66
2022-11-23T15:08:44.686Z,6.65
2022-11-23T15:11:19.110Z,6.66
2022-11-23T15:13:52.872Z,6.63
2022-11-23T15:16:24.761Z,6.61
2022-11-23T15:18:57.339Z,6.61
2022-11-23T15:21:29.971Z,6.61
2022-11-23T15:24:01.879Z,6.63
2022-11-23T15:26:47.815Z,6.61
2022-11-23T15:29:37.935Z,6.61
2022-11-23T15:32:34.212Z,6.63
2022-11-23T15:35:13.100Z,6.65
2022-11-23T15:37:47.006Z,6.64
2022-11-23T15:40:20.556Z,6.60
2022-11-23T15:42:53.380Z,6.61
2022-11-23T15:45:40.498Z,6.65
2022-11-23T15:48:16.611Z,6.60
2022-11-23T15:50:52.883Z,6.60
2022-11-23T15:53:29.075Z,6.61
2022-11-23T15:56:04.537Z,6.59
2022-11-23T15:58:36.571Z,6.64
2022-11-23T16:01:14.731Z,6.63
2022-11-23T16:03:52.639Z,6.65
2022-11-23T16:06:36.411Z,6.65
2022-11-23T16:09:54.606Z,6.66
2022-11-23T16:12:29.081Z,6.67
2022-11-23T16:15:22.629Z,6.65
2022-11-23T16:17:54.833Z,6.69
2022-11-23T16:20:28.250Z,6.70
2022-11-23T16:23:01.853Z,6.70
2022-11-23T16:25:35.873Z,6.68
2022-11-23T16:28:16.936Z,6.68
2022-11-23T16:30:49.076Z,6.65
2022-11-23T16:33:23.065Z,6.68
2022-11-23T16:35:56.317Z,6.63
2022-11-23T16:38:28.143Z,6.70
2022-11-23T16:41:00.200Z,6.67
2022-11-23T16:43:32.232Z,6.66
2022-11-23T16:46:04.555Z,6.64
2022-11-23T16:48:42.391Z,6.54
2022-11-23T16:51:15.175Z,6.63
2022-11-23T16:54:12.354Z,6.65
2022-11-23T16:56:41.256Z,6.65
2022-11-23T16:59:18.934Z,6.68
2022-11-23T17:01:57.069Z,6.57
2022-11-23T17:04:31.420Z,6.62
2022-11-23T17:07:03.702Z,6.61
2022-11-23T17:09:35.907Z,6.57
2022-11-23T17:12:15.311Z,6.56
2022-11-23T17:14:49.188Z,6.59
2022-11-23T17:17:23.079Z,6.57
2022-11-23T17:19:59.731Z,6.61
2022-11-23T17:22:34.491Z,6.63
2022-11-23T17:25:13.104Z,6.64
2022-11-23T17:27:48.285Z,6.67
2022-11-23T17:30:22.927Z,6.67
2022-11-23T17:32:55.154Z,6.67
2022-11-23T17:35:27.352Z,6.68
2022-11-23T17:37:59.422Z,6.61
2022-11-23T17:40:31.312Z,6.68
2022-11-23T17:43:03.203Z,6.67
2022-11-23T17:45:35.639Z,6.68
2022-11-23T17:48:10.778Z,6.67
2022-11-23T17:50:42.874Z,6.68
2022-11-23T17:53:14.770Z,6.69
2022-11-23T17:55:47.100Z,6.69
2022-11-23T17:58:19.184Z,6.69
2022-11-23T18:00:51.511Z,6.67
2022-11-23T18:03:23.428Z,6.67
2022-11-23T18:05:55.775Z,6.68
2022-11-23T18:08:27.932Z,6.65
2022-11-23T18:11:00.559Z,6.66
2022-11-23T18:13:32.493Z,6.64
2022-11-23T18:16:04.664Z,6.67
2022-11-23T18:18:37.336Z,6.61
2022-11-23T18:21:10.941Z,6.69
2022-11-23T18:23:43.477Z,6.69
2022-11-23T18:26:21.780Z,6.70
2022-11-23T18:28:54.367Z,6.72
2022-11-23T18:31:26.654Z,6.73
2022-11-23T18:33:58.612Z,6.67
2022-11-23T18:36:30.656Z,6.72
2022-11-23T18:39:02.787Z,6.75
2022-11-23T18:41:34.640Z,6.69
2022-11-23T18:44:06.835Z,6.70
2022-11-23T18:46:39.356Z,6.74
2022-11-23T18:49:12.006Z,6.76
2022-11-23T18:51:44.046Z,6.76
2022-11-23T18:54:15.889Z,6.79
2022-11-23T18:56:48.245Z,6.71
2022-11-23T18:59:49.950Z,6.77
2022-11-23T19:02:13.652Z,6.77
2022-11-23T19:04:45.709Z,6.79
2022-11-23T19:07:20.921Z,6.77
2022-11-23T19:09:57.012Z,6.77
2022-11-23T19:12:30.477Z,6.78
2022-11-23T19:15:02.667Z,6.76
2022-11-23T19:17:34.948Z,6.76
2022-11-23T19:20:09.899Z,6.77
2022-11-23T19:22:42.249Z,6.82
2022-11-23T19:25:14.171Z,6.81
2022-11-23T19:27:48.960Z,6.76
2022-11-23T19:30:21.004Z,6.85
2022-11-23T19:32:52.964Z,6.85
2022-11-23T19:35:27.896Z,6.85
2022-11-23T19:37:59.715Z,6.88
2022-11-23T19:40:31.666Z,6.88
2022-11-23T19:43:03.575Z,6.89
2022-11-23T19:45:35.379Z,6.89
2022-11-23T19:48:07.869Z,6.89
2022-11-23T19:50:39.815Z,6.89
2022-11-23T19:53:13.085Z,6.88
2022-11-23T19:55:45.230Z,6.88
2022-11-23T19:58:17.689Z,6.85
2022-11-23T20:00:52.044Z,6.84
2022-11-23T20:03:23.888Z,6.84
2022-11-23T20:06:02.450Z,6.77
2022-11-23T20:08:34.675Z,6.80
2022-11-23T20:11:10.464Z,6.79
2022-11-23T20:13:43.289Z,6.80
2022-11-23T20:16:16.692Z,6.73
2022-11-23T20:18:52.424Z,6.72
2022-11-23T20:21:24.440Z,6.71
2022-11-23T20:24:04.820Z,6.73
2022-11-23T20:26:38.048Z,6.75
2022-11-23T20:29:10.882Z,6.75
2022-11-23T20:31:42.894Z,6.74
2022-11-23T20:34:19.967Z,6.72
2022-11-23T20:36:52.633Z,6.69
2022-11-23T20:39:24.680Z,6.72
2022-11-23T20:41:58.723Z,6.74
2022-11-23T20:44:33.867Z,6.73
2022-11-23T20:47:06.156Z,6.72
2022-11-23T20:49:38.305Z,6.70
2022-11-23T20:52:10.316Z,6.72
2022-11-23T20:54:42.222Z,6.68
2022-11-23T20:57:14.401Z,6.69
2022-11-23T20:59:46.404Z,6.66
2022-11-23T21:02:18.564Z,6.58
2022-11-23T21:04:50.995Z,6.63
2022-11-23T21:07:22.948Z,6.66
2022-11-23T21:09:56.513Z,6.63
2022-11-23T21:12:50.370Z,6.53
2022-11-23T21:15:22.443Z,6.60
2022-11-23T21:17:54.263Z,6.61
2022-11-23T21:20:31.314Z,6.60
2022-11-23T21:23:08.718Z,6.52
2022-11-23T21:25:40.670Z,6.62
2022-11-23T21:28:12.556Z,6.59
2022-11-23T21:30:45.062Z,6.58
2022-11-23T21:33:17.091Z,6.53
2022-11-23T21:35:48.852Z,6.57
2022-11-23T21:38:23.474Z,6.55
2022-11-23T21:41:00.121Z,6.53
2022-11-23T21:43:32.371Z,6.50
2022-11-23T21:46:05.874Z,6.54
2022-11-23T21:48:38.968Z,6.52
2022-11-23T21:51:14.704Z,6.53
2022-11-23T21:53:46.966Z,6.49
2022-11-23T21:56:20.179Z,6.51
2022-11-23T21:58:52.350Z,6.50
2022-11-23T22:01:26.224Z,6.48
2022-11-23T22:03:58.669Z,6.48
2022-11-23T22:06:31.269Z,6.48
2022-11-23T22:09:05.128Z,6.48
2022-11-23T22:11:39.498Z,6.48
2022-11-23T22:14:12.746Z,6.47
2022-11-23T22:16:46.136Z,6.46
2022-11-23T22:19:18.781Z,6.47
2022-11-23T22:21:50.884Z,6.43
2022-11-23T22:24:23.240Z,6.43
2022-11-23T22:26:55.196Z,6.43
2022-11-23T22:29:27.021Z,6.43
2022-11-23T22:31:59.200Z,6.43
2022-11-23T22:34:35.297Z,6.46
2022-11-23T22:37:10.730Z,6.43
2022-11-23T22:39:42.911Z,6.36
2022-11-23T22:42:15.461Z,6.39
2022-11-23T22:44:47.608Z,6.38
2022-11-23T22:47:19.404Z,6.39
2022-11-23T22:49:51.703Z,6.38
2022-11-23T22:52:23.552Z,6.35
2022-11-23T22:54:55.503Z,6.38
2022-11-23T22:57:27.445Z,6.35
2022-11-23T22:59:59.214Z,6.36
2022-11-23T23:02:31.693Z,6.40
2022-11-23T23:05:04.187Z,6.41
2022-11-23T23:07:36.260Z,6.40
2022-11-23T23:10:11.150Z,6.41
2022-11-23T23:12:43.011Z,6.35
2022-11-23T23:15:15.199Z,6.41
2022-11-23T23:17:47.839Z,6.38
2022-11-23T23:20:19.717Z,6.41
2022-11-23T23:22:51.661Z,6.37
2022-11-23T23:25:23.667Z,6.41
2022-11-23T23:27:55.510Z,6.41
2022-11-23T23:30:27.767Z,6.39
2022-11-23T23:33:00.154Z,6.39
2022-11-23T23:35:46.147Z,6.35
2022-11-23T23:38:20.645Z,6.38
2022-11-23T23:40:55.824Z,6.40
2022-11-23T23:43:28.830Z,6.35
2022-11-23T23:46:02.175Z,6.30
2022-11-23T23:48:35.916Z,6.33
2022-11-23T23:51:09.908Z,6.31
2022-11-23T23:53:42.506Z,6.34
2022-11-23T23:56:17.731Z,6.31
2022-11-23T23:58:49.806Z,6.33
